createdAt,value
2018-12-22T00:01:35.172Z,12.00
2018-12-22T00:04:03.437Z,11.90
2018-12-22T00:06:31.645Z,11.90
2018-12-22T00:08:59.826Z,11.90
2018-12-22T00:11:27.981Z,11.90
2018-12-22T00:13:56.159Z,11.90
2018-12-22T00:16:24.372Z,11.90
2018-12-22T00:18:52.628Z,11.90
2018-12-22T00:21:20.944Z,12.00
2018-12-22T00:23:49.206Z,12.00
2018-12-22T00:26:17.382Z,12.00
2018-12-22T00:28:45.605Z,12.00
2018-12-22T00:31:13.863Z,12.00
2018-12-22T00:33:42.096Z,12.10
2018-12-22T00:36:10.485Z,12.10
2018-12-22T00:38:38.689Z,12.20
2018-12-22T00:41:06.917Z,12.20
2018-12-22T00:43:35.173Z,12.10
2018-12-22T00:46:03.474Z,12.10
2018-12-22T00:48:31.685Z,12.10
2018-12-22T00:50:59.973Z,12.10
2018-12-22T00:53:28.181Z,12.10
2018-12-22T00:55:56.406Z,12.20
2018-12-22T00:58:30.726Z,12.20
2018-12-22T01:00:54.801Z,12.30
2018-12-22T01:03:23.014Z,12.30
2018-12-22T01:05:52.070Z,12.30
2018-12-22T01:08:20.276Z,12.20
2018-12-22T01:10:48.513Z,12.20
2018-12-22T01:13:16.770Z,12.30
2018-12-22T01:15:45.022Z,12.30
2018-12-22T01:18:13.214Z,12.20
2018-12-22T01:20:41.415Z,12.20
2018-12-22T01:23:09.604Z,12.30
2018-12-22T01:25:37.872Z,12.30
2018-12-22T01:28:06.068Z,12.30
2018-12-22T01:30:34.326Z,12.20
2018-12-22T01:33:02.534Z,12.20
2018-12-22T01:35:30.714Z,12.20
2018-12-22T01:37:58.940Z,12.30
2018-12-22T01:40:27.103Z,12.30
2018-12-22T01:42:55.372Z,12.40
2018-12-22T01:45:23.563Z,12.40
2018-12-22T01:47:51.811Z,12.40
2018-12-22T01:50:20.104Z,12.30
2018-12-22T01:52:48.415Z,12.20
2018-12-22T01:55:16.650Z,12.20
2018-12-22T01:57:44.780Z,12.30
2018-12-22T02:00:13.245Z,12.30
2018-12-22T02:02:41.548Z,12.30
2018-12-22T02:05:09.843Z,12.30
2018-12-22T02:07:38.089Z,12.20
2018-12-22T02:10:06.649Z,12.20
2018-12-22T02:12:34.985Z,12.30
2018-12-22T02:15:03.217Z,12.30
2018-12-22T02:17:31.448Z,12.20
2018-12-22T02:19:59.726Z,12.20
2018-12-22T02:22:27.907Z,12.20
2018-12-22T02:24:56.089Z,12.20
2018-12-22T02:27:24.384Z,12.20
2018-12-22T02:29:52.558Z,12.20
2018-12-22T02:32:20.747Z,12.20
2018-12-22T02:34:49.017Z,12.30
2018-12-22T02:37:17.198Z,12.30
2018-12-22T02:39:45.405Z,12.40
2018-12-22T02:42:13.729Z,12.30
2018-12-22T02:44:42.070Z,12.30
2018-12-22T02:47:10.282Z,12.30
2018-12-22T02:49:38.469Z,12.20
2018-12-22T02:52:06.698Z,12.30
2018-12-22T02:54:34.892Z,12.20
2018-12-22T02:57:03.134Z,12.30
2018-12-22T02:59:31.366Z,12.30
2018-12-22T03:01:59.589Z,12.20
2018-12-22T03:04:27.879Z,12.20
2018-12-22T03:06:56.165Z,12.20
2018-12-22T03:09:24.353Z,12.20
2018-12-22T03:11:52.645Z,12.20
2018-12-22T03:14:20.843Z,12.20
2018-12-22T03:16:49.040Z,12.20
2018-12-22T03:19:17.224Z,12.20
2018-12-22T03:21:45.446Z,12.20
2018-12-22T03:24:13.643Z,12.10
2018-12-22T03:26:41.916Z,12.20
2018-12-22T03:29:15.529Z,12.20
2018-12-22T03:31:40.292Z,12.20
2018-12-22T03:34:08.482Z,12.20
2018-12-22T03:36:36.702Z,12.20
2018-12-22T03:39:07.289Z,12.20
2018-12-22T03:41:35.666Z,12.20
2018-12-22T03:44:03.966Z,12.10
2018-12-22T03:46:32.216Z,12.00
2018-12-22T03:49:00.474Z,11.90
2018-12-22T03:51:28.640Z,11.80
2018-12-22T03:53:56.858Z,11.80
2018-12-22T03:56:25.038Z,11.70
2018-12-22T03:58:53.217Z,11.50
2018-12-22T04:01:21.425Z,11.60
2018-12-22T04:03:49.638Z,11.40
2018-12-22T04:06:17.853Z,11.40
2018-12-22T04:08:52.378Z,11.50
2018-12-22T04:11:20.612Z,11.50
2018-12-22T04:13:48.881Z,11.50
2018-12-22T04:16:17.043Z,11.50
2018-12-22T04:18:45.407Z,11.40
2018-12-22T04:21:13.622Z,11.30
2018-12-22T04:23:41.810Z,11.20
2018-12-22T04:26:10.002Z,11.20
2018-12-22T04:28:38.265Z,11.10
2018-12-22T04:31:06.437Z,11.10
2018-12-22T04:33:34.611Z,11.20
2018-12-22T04:36:02.792Z,11.10
2018-12-22T04:38:31.067Z,11.10
2018-12-22T04:40:59.411Z,11.10
2018-12-22T04:43:27.738Z,11.20
2018-12-22T04:45:56.073Z,11.10
2018-12-22T04:48:24.267Z,11.10
2018-12-22T04:50:52.512Z,11.10
2018-12-22T04:53:20.829Z,11.20
2018-12-22T04:55:49.026Z,11.20
2018-12-22T04:58:17.194Z,11.30
2018-12-22T05:00:45.397Z,11.30
2018-12-22T05:03:13.599Z,11.30
2018-12-22T05:05:41.780Z,11.30
2018-12-22T05:08:09.958Z,11.30
2018-12-22T05:10:38.141Z,11.40
2018-12-22T05:13:06.415Z,11.40
2018-12-22T05:15:34.584Z,11.50
2018-12-22T05:18:02.997Z,11.50
2018-12-22T05:20:31.161Z,11.50
2018-12-22T05:22:59.377Z,11.40
2018-12-22T05:25:27.600Z,11.40
2018-12-22T05:27:55.841Z,11.40
2018-12-22T05:30:24.101Z,11.40
2018-12-22T05:32:52.265Z,11.40
2018-12-22T05:35:20.474Z,11.30
2018-12-22T05:37:48.669Z,11.30
2018-12-22T05:40:16.869Z,11.30
2018-12-22T05:42:45.084Z,11.40
2018-12-22T05:45:13.304Z,11.40
2018-12-22T05:47:41.498Z,11.40
2018-12-22T05:50:09.762Z,11.40
2018-12-22T05:52:37.933Z,11.40
2018-12-22T05:55:06.312Z,11.30
2018-12-22T05:57:34.559Z,11.30
2018-12-22T06:00:02.865Z,11.40
2018-12-22T06:02:31.061Z,11.40
2018-12-22T06:04:59.257Z,11.40
2018-12-22T06:07:27.469Z,11.40
2018-12-22T06:09:55.669Z,11.40
2018-12-22T06:12:23.926Z,11.40
2018-12-22T06:14:52.124Z,11.40
2018-12-22T06:17:20.337Z,11.40
2018-12-22T06:19:48.566Z,11.40
2018-12-22T06:22:16.791Z,11.40
2018-12-22T06:24:44.954Z,11.40
2018-12-22T06:27:13.237Z,11.40
2018-12-22T06:29:41.407Z,11.40
2018-12-22T06:32:09.602Z,11.40
2018-12-22T06:34:37.821Z,11.40
2018-12-22T06:37:05.980Z,11.40
2018-12-22T06:39:34.242Z,11.80
2018-12-22T06:42:02.426Z,11.50
2018-12-22T06:44:30.683Z,11.40
2018-12-22T06:46:58.888Z,11.50
2018-12-22T06:49:27.199Z,11.50
2018-12-22T06:51:55.441Z,11.50
2018-12-22T06:54:23.635Z,11.50
2018-12-22T06:56:51.830Z,11.40
2018-12-22T06:59:20.093Z,11.40
2018-12-22T07:01:48.289Z,11.50
2018-12-22T07:04:16.709Z,11.40
2018-12-22T07:06:44.867Z,11.30
2018-12-22T07:09:13.052Z,11.30
2018-12-22T07:11:41.289Z,11.20
2018-12-22T07:14:09.477Z,11.20
2018-12-22T07:16:37.668Z,11.10
2018-12-22T07:19:05.901Z,11.00
2018-12-22T07:21:34.151Z,10.80
2018-12-22T07:24:02.452Z,10.80
2018-12-22T07:26:30.653Z,10.70
2018-12-22T07:28:58.925Z,10.60
2018-12-22T07:31:27.108Z,10.60
2018-12-22T07:33:55.285Z,10.50
2018-12-22T07:36:25.238Z,10.50
2018-12-22T07:38:53.686Z,10.60
2018-12-22T07:41:21.870Z,10.60
2018-12-22T07:43:50.156Z,10.60
2018-12-22T07:46:18.325Z,10.60
2018-12-22T07:48:46.514Z,10.60
2018-12-22T07:51:14.713Z,10.60
2018-12-22T07:53:42.913Z,10.70
2018-12-22T07:56:11.109Z,10.70
2018-12-22T07:58:39.274Z,10.70
2018-12-22T08:01:07.530Z,10.70
2018-12-22T08:03:35.690Z,10.70
2018-12-22T08:06:03.927Z,10.70
2018-12-22T08:08:32.099Z,10.80
2018-12-22T08:11:00.314Z,10.80
2018-12-22T08:13:28.489Z,10.80
2018-12-22T08:15:56.826Z,10.80
2018-12-22T08:18:24.972Z,10.80
2018-12-22T08:20:53.251Z,10.80
2018-12-22T08:23:21.569Z,10.90
2018-12-22T08:25:49.790Z,10.90
2018-12-22T08:28:17.981Z,10.90
2018-12-22T08:30:46.192Z,10.90
2018-12-22T08:33:14.350Z,11.00
2018-12-22T08:35:42.545Z,11.00
2018-12-22T08:38:10.724Z,11.00
2018-12-22T08:40:38.939Z,11.00
2018-12-22T08:43:07.188Z,11.00
2018-12-22T08:45:35.584Z,11.00
2018-12-22T08:48:03.910Z,11.10
2018-12-22T08:50:32.128Z,11.10
2018-12-22T08:53:00.320Z,11.00
2018-12-22T08:55:28.510Z,11.00
2018-12-22T08:57:56.816Z,11.00
2018-12-22T09:00:25.055Z,11.00
2018-12-22T09:02:53.459Z,11.00
2018-12-22T09:05:21.653Z,11.00
2018-12-22T09:07:49.842Z,11.10
2018-12-22T09:10:18.045Z,11.00
2018-12-22T09:12:46.290Z,11.10
2018-12-22T09:15:14.595Z,11.10
2018-12-22T09:17:42.795Z,11.10
2018-12-22T09:20:11.055Z,11.10
2018-12-22T09:22:39.285Z,11.10
2018-12-22T09:25:08.716Z,11.20
2018-12-22T09:27:36.914Z,11.20
2018-12-22T09:30:08.546Z,11.30
2018-12-22T09:32:36.880Z,11.20
2018-12-22T09:35:05.249Z,11.30
2018-12-22T09:37:33.573Z,11.30
2018-12-22T09:40:01.709Z,11.30
2018-12-22T09:42:29.941Z,11.20
2018-12-22T09:44:58.138Z,11.20
2018-12-22T09:47:26.313Z,11.10
2018-12-22T09:49:54.773Z,11.10
2018-12-22T09:52:22.990Z,11.00
2018-12-22T09:54:51.266Z,10.90
2018-12-22T09:57:19.597Z,10.90
2018-12-22T09:59:47.821Z,11.00
2018-12-22T10:02:16.029Z,11.00
2018-12-22T10:04:44.285Z,11.00
2018-12-22T10:07:12.561Z,11.00
2018-12-22T10:09:40.872Z,11.00
2018-12-22T10:12:09.185Z,10.90
2018-12-22T10:14:37.398Z,10.80
2018-12-22T10:17:05.658Z,10.80
2018-12-22T10:19:33.849Z,10.80
2018-12-22T10:22:02.037Z,10.80
2018-12-22T10:24:30.241Z,10.80
2018-12-22T10:26:58.549Z,10.80
2018-12-22T10:29:26.752Z,10.80
2018-12-22T10:31:54.950Z,10.90
2018-12-22T10:34:23.152Z,11.10
2018-12-22T10:36:51.299Z,11.20
2018-12-22T10:39:19.481Z,11.30
2018-12-22T10:41:47.688Z,11.30
2018-12-22T10:44:15.913Z,11.20
2018-12-22T10:46:44.093Z,11.20
2018-12-22T10:49:12.290Z,11.10
2018-12-22T10:51:40.484Z,11.10
2018-12-22T10:54:08.741Z,11.00
2018-12-22T10:56:37.013Z,11.00
2018-12-22T10:59:05.354Z,11.10
2018-12-22T11:01:33.546Z,11.20
2018-12-22T11:04:01.771Z,11.30
2018-12-22T11:06:29.935Z,11.30
2018-12-22T11:08:58.196Z,11.50
2018-12-22T11:11:26.350Z,11.50
2018-12-22T11:13:54.604Z,11.50
2018-12-22T11:16:22.870Z,11.50
2018-12-22T11:18:51.101Z,11.50
2018-12-22T11:21:19.323Z,11.70
2018-12-22T11:23:47.480Z,11.70
2018-12-22T11:26:15.670Z,11.60
2018-12-22T11:28:43.897Z,11.80
2018-12-22T11:31:12.150Z,11.80
2018-12-22T11:33:40.515Z,11.90
2018-12-22T11:36:08.796Z,12.00
2018-12-22T11:38:37.144Z,11.90
2018-12-22T11:41:05.360Z,11.90
2018-12-22T11:43:33.566Z,11.90
2018-12-22T11:46:01.810Z,11.80
2018-12-22T11:48:36.958Z,11.70
2018-12-22T11:51:05.174Z,11.80
2018-12-22T11:53:33.386Z,11.80
2018-12-22T11:56:01.601Z,11.90
2018-12-22T11:58:29.896Z,11.90
2018-12-22T12:00:58.179Z,12.00
2018-12-22T12:03:26.375Z,12.20
2018-12-22T12:05:54.601Z,12.20
2018-12-22T12:08:22.896Z,12.10
2018-12-22T12:10:51.078Z,12.10
2018-12-22T12:13:19.305Z,12.10
2018-12-22T12:15:53.710Z,12.10
2018-12-22T12:19:32.187Z,12.10
2018-12-22T12:22:00.392Z,12.10
2018-12-22T12:24:28.626Z,12.00
2018-12-22T12:26:56.812Z,12.00
2018-12-22T12:29:25.020Z,12.10
2018-12-22T12:31:53.237Z,12.00
2018-12-22T12:34:21.497Z,11.90
2018-12-22T12:36:49.727Z,11.80
2018-12-22T12:39:17.982Z,11.90
2018-12-22T12:41:49.325Z,12.10
2018-12-22T12:44:17.595Z,12.10
2018-12-22T12:46:48.805Z,12.10
2018-12-22T12:49:17.636Z,12.10
2018-12-22T12:51:45.926Z,12.10
2018-12-22T12:54:14.234Z,11.80
2018-12-22T12:56:46.653Z,11.60
2018-12-22T12:59:14.870Z,11.50
2018-12-22T13:01:43.254Z,11.20
2018-12-22T13:04:11.552Z,11.30
2018-12-22T13:06:39.788Z,11.30
2018-12-22T13:09:08.878Z,11.30
2018-12-22T13:11:37.307Z,11.40
2018-12-22T13:14:09.700Z,11.40
2018-12-22T13:16:37.962Z,11.40
2018-12-22T13:19:06.153Z,11.50
2018-12-22T13:21:34.598Z,11.40
2018-12-22T13:24:02.785Z,11.50
2018-12-22T13:26:36.785Z,11.50
2018-12-22T13:29:01.237Z,11.60
2018-12-22T13:31:29.988Z,11.70
2018-12-22T13:33:58.257Z,11.60
2018-12-22T13:36:34.315Z,11.60
2018-12-22T13:39:05.254Z,11.60
2018-12-22T13:41:33.481Z,11.60
2018-12-22T13:44:01.703Z,11.60
2018-12-22T13:46:29.908Z,11.80
2018-12-22T13:48:58.140Z,11.70
2018-12-22T13:51:26.659Z,11.70
2018-12-22T13:53:54.962Z,11.60
2018-12-22T13:56:23.150Z,11.60
2018-12-22T13:58:51.344Z,11.60
2018-12-22T14:01:21.387Z,11.50
2018-12-22T14:03:50.569Z,11.50
2018-12-22T14:06:22.234Z,11.50
2018-12-22T14:08:50.448Z,11.60
2018-12-22T14:11:18.730Z,11.60
2018-12-22T14:13:47.000Z,11.60
2018-12-22T14:16:20.106Z,11.80
2018-12-22T14:18:55.980Z,11.90
2018-12-22T14:21:24.219Z,11.80
2018-12-22T14:24:09.358Z,11.60
2018-12-22T14:26:37.645Z,11.60
2018-12-22T14:29:05.874Z,11.50
2018-12-22T14:31:34.145Z,11.40
2018-12-22T14:34:07.212Z,11.50
2018-12-22T14:36:35.664Z,11.50
2018-12-22T14:39:06.479Z,11.50
2018-12-22T14:41:34.677Z,11.40
2018-12-22T14:44:03.091Z,11.50
2018-12-22T14:46:31.290Z,11.50
2018-12-22T14:48:59.526Z,11.60
2018-12-22T14:51:27.770Z,11.60
2018-12-22T14:53:55.989Z,11.60
2018-12-22T14:56:29.535Z,11.60
2018-12-22T14:58:57.708Z,11.60
2018-12-22T15:01:25.912Z,11.60
2018-12-22T15:03:54.194Z,11.60
2018-12-22T15:06:22.394Z,11.50
2018-12-22T15:08:50.597Z,11.50
2018-12-22T15:11:18.782Z,11.50
2018-12-22T15:13:46.998Z,11.40
2018-12-22T15:16:15.193Z,11.40
2018-12-22T15:18:43.374Z,11.50
2018-12-22T15:21:11.551Z,11.40
2018-12-22T15:23:39.801Z,11.30
2018-12-22T15:26:08.013Z,11.40
2018-12-22T15:28:36.236Z,11.30
2018-12-22T15:31:04.522Z,11.20
2018-12-22T15:33:32.731Z,11.10
2018-12-22T15:36:01.061Z,11.10
2018-12-22T15:38:29.374Z,11.00
2018-12-22T15:40:57.665Z,10.90
2018-12-22T15:43:25.904Z,10.90
2018-12-22T15:45:54.118Z,10.80
2018-12-22T15:48:22.293Z,10.80
2018-12-22T15:50:50.657Z,10.80
2018-12-22T15:53:18.930Z,10.80
2018-12-22T15:55:47.096Z,10.70
2018-12-22T15:58:15.298Z,10.70
2018-12-22T16:00:43.485Z,10.70
2018-12-22T16:03:11.695Z,10.70
2018-12-22T16:05:39.945Z,10.90
2018-12-22T16:08:08.112Z,11.60
2018-12-22T16:10:36.321Z,12.40
2018-12-22T16:13:04.639Z,13.50
2018-12-22T16:15:32.845Z,14.70
2018-12-22T16:18:01.174Z,15.60
2018-12-22T16:20:29.378Z,16.70
2018-12-22T16:23:01.405Z,16.80
2018-12-22T16:25:29.950Z,16.60
2018-12-22T16:28:08.074Z,16.70
2018-12-22T16:30:40.778Z,18.10
2018-12-22T16:33:09.040Z,17.60
2018-12-22T16:35:37.329Z,17.20
2018-12-22T16:38:06.569Z,17.50
2018-12-22T16:40:35.066Z,17.00
2018-12-22T16:43:05.153Z,16.10
2018-12-22T16:45:33.622Z,15.30
2018-12-22T16:48:02.046Z,14.40
2018-12-22T16:50:33.022Z,13.90
2018-12-22T16:53:01.298Z,13.40
2018-12-22T16:55:29.576Z,12.90
2018-12-22T16:58:01.927Z,12.50
2018-12-22T17:00:32.367Z,12.20
2018-12-22T17:03:10.663Z,11.90
2018-12-22T17:05:35.678Z,11.50
2018-12-22T17:08:05.763Z,11.30
2018-12-22T17:10:41.355Z,11.20
2018-12-22T17:13:10.430Z,11.20
2018-12-22T17:15:42.028Z,11.00
2018-12-22T17:18:10.330Z,10.90
2018-12-22T17:20:38.605Z,10.80
2018-12-22T17:23:38.396Z,10.80
2018-12-22T17:26:08.568Z,10.70
2018-12-22T17:28:36.888Z,10.80
2018-12-22T17:31:05.238Z,10.70
2018-12-22T17:33:33.544Z,11.10
2018-12-22T17:36:02.192Z,11.10
2018-12-22T17:38:30.456Z,10.90
2018-12-22T17:41:00.286Z,10.90
2018-12-22T17:43:28.629Z,10.80
2018-12-22T17:45:56.908Z,10.80
2018-12-22T17:48:25.301Z,10.80
2018-12-22T17:50:53.706Z,10.80
2018-12-22T17:53:23.351Z,10.90
2018-12-22T17:55:51.926Z,10.90
2018-12-22T17:58:20.247Z,10.90
2018-12-22T18:00:48.516Z,11.00
2018-12-22T18:03:17.572Z,11.00
2018-12-22T18:05:45.874Z,11.00
2018-12-22T18:08:14.288Z,11.00
2018-12-22T18:10:42.609Z,10.90
2018-12-22T18:13:10.918Z,10.80
2018-12-22T18:15:39.241Z,10.40
2018-12-22T18:18:07.554Z,10.30
2018-12-22T18:20:35.876Z,10.20
2018-12-22T18:23:04.309Z,10.30
2018-12-22T18:25:32.817Z,10.30
2018-12-22T18:28:02.469Z,10.30
2018-12-22T18:30:30.827Z,10.10
2018-12-22T18:32:59.319Z,10.00
2018-12-22T18:35:27.675Z,10.00
2018-12-22T18:37:55.939Z,10.00
2018-12-22T18:40:24.527Z,10.10
2018-12-22T18:42:52.978Z,10.10
2018-12-22T18:45:21.339Z,10.10
2018-12-22T18:47:49.825Z,10.10
2018-12-22T18:50:21.470Z,10.10
2018-12-22T18:52:49.758Z,10.00
2018-12-22T18:55:18.140Z,10.00
2018-12-22T18:57:49.070Z,10.10
2018-12-22T19:00:20.447Z,10.00
2018-12-22T19:02:48.710Z,9.90
2018-12-22T19:05:17.567Z,10.00
2018-12-22T19:07:45.996Z,10.00
2018-12-22T19:10:19.787Z,10.00
2018-12-22T19:12:48.058Z,9.80
2018-12-22T19:15:16.418Z,9.80
2018-12-22T19:17:44.769Z,9.80
2018-12-22T19:20:16.903Z,9.80
2018-12-22T19:22:45.299Z,9.70
2018-12-22T19:25:13.600Z,9.70
2018-12-22T19:27:41.901Z,9.70
2018-12-22T19:30:10.292Z,9.70
2018-12-22T19:32:38.551Z,9.70
2018-12-22T19:35:07.341Z,9.70
2018-12-22T19:37:35.586Z,9.70
2018-12-22T19:40:04.225Z,9.60
2018-12-22T19:42:32.567Z,9.60
2018-12-22T19:45:00.892Z,9.60
2018-12-22T19:47:29.235Z,9.50
2018-12-22T19:49:57.529Z,9.50
2018-12-22T19:52:25.804Z,9.50
2018-12-22T19:54:54.210Z,9.50
2018-12-22T19:57:22.560Z,9.40
2018-12-22T19:59:50.796Z,9.40
2018-12-22T20:02:19.081Z,9.40
2018-12-22T20:04:47.374Z,9.50
2018-12-22T20:07:15.684Z,9.60
2018-12-22T20:09:44.036Z,9.50
2018-12-22T20:12:12.357Z,9.50
2018-12-22T20:14:40.692Z,9.50
2018-12-22T20:17:08.982Z,9.50
2018-12-22T20:19:37.301Z,9.50
2018-12-22T20:22:05.621Z,9.60
2018-12-22T20:24:33.967Z,9.60
2018-12-22T20:27:02.403Z,9.60
2018-12-22T20:29:30.736Z,9.60
2018-12-22T20:31:59.136Z,9.50
2018-12-22T20:34:27.486Z,9.60
2018-12-22T20:36:55.764Z,9.60
2018-12-22T20:39:24.155Z,9.60
2018-12-22T20:41:52.447Z,9.60
2018-12-22T20:44:20.739Z,9.60
2018-12-22T20:46:49.023Z,9.60
2018-12-22T20:49:17.274Z,9.70
2018-12-22T20:51:45.580Z,9.70
2018-12-22T20:54:13.905Z,9.80
2018-12-22T20:56:42.302Z,9.80
2018-12-22T20:59:12.588Z,9.80
2018-12-22T21:01:41.004Z,9.90
2018-12-22T21:04:09.855Z,9.90
2018-12-22T21:06:38.202Z,10.00
2018-12-22T21:09:07.839Z,9.80
2018-12-22T21:11:36.387Z,9.70
2018-12-22T21:14:04.733Z,9.60
2018-12-22T21:16:33.008Z,9.60
2018-12-22T21:19:01.337Z,9.50
2018-12-22T21:21:29.640Z,9.60
2018-12-22T21:23:57.902Z,9.60
2018-12-22T21:26:26.849Z,9.60
2018-12-22T21:28:55.241Z,9.70
2018-12-22T21:31:23.720Z,9.60
2018-12-22T21:33:52.344Z,9.50
2018-12-22T21:36:20.723Z,9.60
2018-12-22T21:38:49.023Z,9.50
2018-12-22T21:41:17.302Z,9.50
2018-12-22T21:43:45.594Z,9.50
2018-12-22T21:46:14.103Z,9.40
2018-12-22T21:48:42.452Z,9.50
2018-12-22T21:51:10.771Z,9.50
2018-12-22T21:53:39.071Z,9.40
2018-12-22T21:56:07.520Z,9.50
2018-12-22T21:58:35.848Z,9.40
2018-12-22T22:01:04.343Z,9.40
2018-12-22T22:03:33.346Z,9.40
2018-12-22T22:06:01.807Z,9.50
2018-12-22T22:08:30.390Z,9.50
2018-12-22T22:10:58.820Z,9.60
2018-12-22T22:13:27.158Z,9.60
2018-12-22T22:15:55.560Z,9.60
2018-12-22T22:18:23.923Z,9.50
2018-12-22T22:20:52.371Z,9.50
2018-12-22T22:23:20.758Z,9.50
2018-12-22T22:25:49.136Z,9.60
2018-12-22T22:28:17.507Z,9.60
2018-12-22T22:30:45.860Z,9.70
2018-12-22T22:33:14.256Z,9.70
2018-12-22T22:35:42.949Z,9.70
2018-12-22T22:38:11.393Z,9.80
2018-12-22T22:40:39.842Z,9.70
2018-12-22T22:43:08.216Z,9.60
2018-12-22T22:45:36.433Z,9.60
2018-12-22T22:48:04.871Z,9.50
2018-12-22T22:50:33.263Z,9.50
2018-12-22T22:53:01.802Z,9.50
2018-12-22T22:55:30.209Z,9.40
2018-12-22T22:57:58.438Z,9.40
2018-12-22T23:00:35.703Z,9.40
2018-12-22T23:03:04.363Z,9.30
2018-12-22T23:05:32.733Z,9.30
2018-12-22T23:08:01.022Z,9.30
2018-12-22T23:10:29.367Z,9.40
2018-12-22T23:12:57.711Z,9.40
2018-12-22T23:15:26.043Z,9.40
2018-12-22T23:17:54.388Z,9.40
2018-12-22T23:20:22.655Z,9.40
2018-12-22T23:22:50.944Z,9.50
2018-12-22T23:25:19.403Z,9.50
2018-12-22T23:27:47.787Z,9.50
2018-12-22T23:30:16.111Z,9.40
2018-12-22T23:32:44.487Z,9.30
2018-12-22T23:35:12.822Z,9.40
2018-12-22T23:37:41.072Z,9.40
2018-12-22T23:40:09.411Z,9.40
2018-12-22T23:42:37.673Z,9.50
2018-12-22T23:45:06.690Z,9.60
2018-12-22T23:47:35.085Z,9.50
2018-12-22T23:50:04.534Z,9.50
2018-12-22T23:52:33.038Z,9.60
2018-12-22T23:55:01.318Z,9.60
2018-12-22T23:57:29.667Z,9.60
2018-12-22T23:59:58.020Z,9.70
